sensor_id;sensor_type;location;lat;lon;timestamp;temperature;humidity
63960;DHT22;50136;51.374;0.096;2023-04-10T00:09:57;11.30;99.90
63960;DHT22;50136;51.374;0.096;2023-04-10T00:20:00;11.40;99.90
63960;DHT22;50136;51.374;0.096;2023-04-10T00:30:02;11.50;99.90
63960;DHT22;50136;51.374;0.096;2023-04-10T00:40:07;11.50;99.90
63960;DHT22;50136;51.374;0.096;2023-04-10T00:50:10;11.60;99.90
63960;DHT22;50136;51.374;0.096;2023-04-10T01:00:15;11.70;99.90
63960;DHT22;50136;51.374;0.096;2023-04-10T01:10:24;11.80;99.90
63960;DHT22;50136;51.374;0.096;2023-04-10T01:20:31;12.00;99.90
63960;DHT22;50136;51.374;0.096;2023-04-10T01:30:36;12.00;99.90
63960;DHT22;50136;51.374;0.096;2023-04-10T01:40:38;12.10;99.90
63960;DHT22;50136;51.374;0.096;2023-04-10T01:50:44;12.10;99.90
63960;DHT22;50136;51.374;0.096;2023-04-10T02:00:46;12.10;99.90
63960;DHT22;50136;51.374;0.096;2023-04-10T02:10:53;12.20;99.90
63960;DHT22;50136;51.374;0.096;2023-04-10T02:20:56;12.20;99.90
63960;DHT22;50136;51.374;0.096;2023-04-10T02:31:00;12.10;99.90
63960;DHT22;50136;51.374;0.096;2023-04-10T02:41:02;12.10;99.90
63960;DHT22;50136;51.374;0.096;2023-04-10T02:51:06;12.00;99.90
63960;DHT22;50136;51.374;0.096;2023-04-10T03:01:08;11.90;99.90
63960;DHT22;50136;51.374;0.096;2023-04-10T03:11:11;11.80;99.90
63960;DHT22;50136;51.374;0.096;2023-04-10T03:21:13;11.70;99.90
63960;DHT22;50136;51.374;0.096;2023-04-10T03:31:17;11.60;99.90
63960;DHT22;50136;51.374;0.096;2023-04-10T03:41:20;11.50;99.90
63960;DHT22;50136;51.374;0.096;2023-04-10T03:51:25;11.50;99.90
63960;DHT22;50136;51.374;0.096;2023-04-10T04:01:27;11.50;99.90
63960;DHT22;50136;51.374;0.096;2023-04-10T04:11:31;11.50;99.90
63960;DHT22;50136;51.374;0.096;2023-04-10T04:21:33;11.50;99.90
63960;DHT22;50136;51.374;0.096;2023-04-10T04:31:36;11.40;99.90
63960;DHT22;50136;51.374;0.096;2023-04-10T04:41:38;11.20;99.90
63960;DHT22;50136;51.374;0.096;2023-04-10T04:51:41;11.00;99.90
63960;DHT22;50136;51.374;0.096;2023-04-10T05:01:43;11.00;99.90
63960;DHT22;50136;51.374;0.096;2023-04-10T05:11:47;10.90;99.90
63960;DHT22;50136;51.374;0.096;2023-04-10T05:21:49;10.90;99.90
63960;DHT22;50136;51.374;0.096;2023-04-10T05:31:52;10.90;99.90
63960;DHT22;50136;51.374;0.096;2023-04-10T05:41:54;10.90;99.90
63960;DHT22;50136;51.374;0.096;2023-04-10T05:51:58;10.90;99.90
63960;DHT22;50136;51.374;0.096;2023-04-10T06:02:00;11.00;99.90
63960;DHT22;50136;51.374;0.096;2023-04-10T06:12:04;11.00;99.90
63960;DHT22;50136;51.374;0.096;2023-04-10T06:22:06;11.10;99.90
63960;DHT22;50136;51.374;0.096;2023-04-10T06:32:09;11.20;99.90
63960;DHT22;50136;51.374;0.096;2023-04-10T06:42:11;11.20;99.90
63960;DHT22;50136;51.374;0.096;2023-04-10T06:52:15;11.20;99.90
63960;DHT22;50136;51.374;0.096;2023-04-10T07:02:17;11.30;99.90
63960;DHT22;50136;51.374;0.096;2023-04-10T07:12:20;11.10;99.90
63960;DHT22;50136;51.374;0.096;2023-04-10T07:22:23;11.20;99.90
63960;DHT22;50136;51.374;0.096;2023-04-10T07:32:26;11.20;99.90
63960;DHT22;50136;51.374;0.096;2023-04-10T07:42:29;11.20;99.90
63960;DHT22;50136;51.374;0.096;2023-04-10T07:52:32;11.20;99.90
63960;DHT22;50136;51.374;0.096;2023-04-10T08:02:34;11.40;99.90
63960;DHT22;50136;51.374;0.096;2023-04-10T08:12:37;11.30;99.90
63960;DHT22;50136;51.374;0.096;2023-04-10T08:22:39;11.30;99.90
63960;DHT22;50136;51.374;0.096;2023-04-10T08:32:43;11.40;99.90
63960;DHT22;50136;51.374;0.096;2023-04-10T08:42:45;11.60;99.90
63960;DHT22;50136;51.374;0.096;2023-04-10T08:52:50;11.70;99.90
63960;DHT22;50136;51.374;0.096;2023-04-10T09:02:53;11.80;99.90
63960;DHT22;50136;51.374;0.096;2023-04-10T09:12:57;11.90;99.90
63960;DHT22;50136;51.374;0.096;2023-04-10T09:22:59;11.90;99.90
63960;DHT22;50136;51.374;0.096;2023-04-10T09:33:02;11.90;99.90
63960;DHT22;50136;51.374;0.096;2023-04-10T09:43:19;12.00;99.90
63960;DHT22;50136;51.374;0.096;2023-04-10T09:53:23;12.30;99.90
63960;DHT22;50136;51.374;0.096;2023-04-10T10:03:25;12.30;99.90
63960;DHT22;50136;51.374;0.096;2023-04-10T10:13:33;12.20;99.90
63960;DHT22;50136;51.374;0.096;2023-04-10T10:23:36;12.10;99.90
63960;DHT22;50136;51.374;0.096;2023-04-10T10:33:40;12.20;99.90
63960;DHT22;50136;51.374;0.096;2023-04-10T10:43:49;12.30;99.90
63960;DHT22;50136;51.374;0.096;2023-04-10T10:53:54;12.40;99.90
63960;DHT22;50136;51.374;0.096;2023-04-10T11:03:56;12.60;99.90
63960;DHT22;50136;51.374;0.096;2023-04-10T11:14:16;12.60;99.90
63960;DHT22;50136;51.374;0.096;2023-04-10T11:24:19;12.50;99.90
63960;DHT22;50136;51.374;0.096;2023-04-10T11:34:23;12.70;99.90
63960;DHT22;50136;51.374;0.096;2023-04-10T11:44:29;13.10;99.90
63960;DHT22;50136;51.374;0.096;2023-04-10T11:54:33;13.60;99.90
63960;DHT22;50136;51.374;0.096;2023-04-10T12:04:35;14.20;99.90
63960;DHT22;50136;51.374;0.096;2023-04-10T12:14:40;14.10;99.90
63960;DHT22;50136;51.374;0.096;2023-04-10T12:24:44;14.20;99.90
63960;DHT22;50136;51.374;0.096;2023-04-10T12:34:50;14.60;99.90
63960;DHT22;50136;51.374;0.096;2023-04-10T12:44:54;15.00;99.90
63960;DHT22;50136;51.374;0.096;2023-04-10T12:55:11;15.20;99.90
63960;DHT22;50136;51.374;0.096;2023-04-10T13:05:14;15.30;99.90
63960;DHT22;50136;51.374;0.096;2023-04-10T13:15:17;15.50;99.90
63960;DHT22;50136;51.374;0.096;2023-04-10T13:25:19;15.50;99.90
63960;DHT22;50136;51.374;0.096;2023-04-10T13:35:23;15.70;99.90
63960;DHT22;50136;51.374;0.096;2023-04-10T13:45:25;15.00;99.90
63960;DHT22;50136;51.374;0.096;2023-04-10T13:55:28;13.50;99.90
63960;DHT22;50136;51.374;0.096;2023-04-10T14:05:30;12.60;99.90
63960;DHT22;50136;51.374;0.096;2023-04-10T14:15:33;12.70;99.90
63960;DHT22;50136;51.374;0.096;2023-04-10T14:25:35;13.70;99.90
63960;DHT22;50136;51.374;0.096;2023-04-10T14:35:39;14.30;99.90
63960;DHT22;50136;51.374;0.096;2023-04-10T14:45:41;14.50;99.90
63960;DHT22;50136;51.374;0.096;2023-04-10T14:55:44;14.10;99.90
63960;DHT22;50136;51.374;0.096;2023-04-10T15:05:46;14.60;99.90
63960;DHT22;50136;51.374;0.096;2023-04-10T15:15:49;14.50;99.90
63960;DHT22;50136;51.374;0.096;2023-04-10T15:25:51;15.70;99.90
63960;DHT22;50136;51.374;0.096;2023-04-10T15:35:55;16.00;99.90
63960;DHT22;50136;51.374;0.096;2023-04-10T15:45:57;16.00;99.90
63960;DHT22;50136;51.374;0.096;2023-04-10T15:56:02;16.20;99.90
63960;DHT22;50136;51.374;0.096;2023-04-10T16:06:06;15.50;99.90
63960;DHT22;50136;51.374;0.096;2023-04-10T16:16:14;14.80;99.90
63960;DHT22;50136;51.374;0.096;2023-04-10T16:26:16;15.50;99.90
63960;DHT22;50136;51.374;0.096;2023-04-10T16:36:19;15.80;99.90
63960;DHT22;50136;51.374;0.096;2023-04-10T16:46:21;15.20;99.90
63960;DHT22;50136;51.374;0.096;2023-04-10T16:56:25;14.60;99.90
63960;DHT22;50136;51.374;0.096;2023-04-10T17:06:27;14.20;99.90
63960;DHT22;50136;51.374;0.096;2023-04-10T17:16:31;14.00;99.90
63960;DHT22;50136;51.374;0.096;2023-04-10T17:26:33;13.80;99.90
63960;DHT22;50136;51.374;0.096;2023-04-10T17:36:36;13.60;99.90
63960;DHT22;50136;51.374;0.096;2023-04-10T17:46:38;13.40;99.90
63960;DHT22;50136;51.374;0.096;2023-04-10T17:56:41;13.20;99.90
63960;DHT22;50136;51.374;0.096;2023-04-10T18:06:43;12.90;99.90
63960;DHT22;50136;51.374;0.096;2023-04-10T18:16:55;12.80;99.90
63960;DHT22;50136;51.374;0.096;2023-04-10T18:26:57;12.30;99.90
63960;DHT22;50136;51.374;0.096;2023-04-10T18:37:00;12.10;99.90
63960;DHT22;50136;51.374;0.096;2023-04-10T18:47:02;11.90;99.90
63960;DHT22;50136;51.374;0.096;2023-04-10T18:57:07;11.70;99.90
63960;DHT22;50136;51.374;0.096;2023-04-10T19:07:09;11.40;99.90
63960;DHT22;50136;51.374;0.096;2023-04-10T19:17:12;11.40;99.90
63960;DHT22;50136;51.374;0.096;2023-04-10T19:27:14;11.40;99.90
63960;DHT22;50136;51.374;0.096;2023-04-10T19:37:18;11.30;99.90
63960;DHT22;50136;51.374;0.096;2023-04-10T19:47:20;11.10;99.90
63960;DHT22;50136;51.374;0.096;2023-04-10T19:57:24;11.00;99.90
63960;DHT22;50136;51.374;0.096;2023-04-10T20:07:26;10.90;99.90
63960;DHT22;50136;51.374;0.096;2023-04-10T20:17:30;10.80;99.90
63960;DHT22;50136;51.374;0.096;2023-04-10T20:27:32;10.70;99.90
63960;DHT22;50136;51.374;0.096;2023-04-10T20:37:35;10.60;99.90
63960;DHT22;50136;51.374;0.096;2023-04-10T20:47:37;10.50;99.90
63960;DHT22;50136;51.374;0.096;2023-04-10T20:57:41;10.30;99.90
63960;DHT22;50136;51.374;0.096;2023-04-10T21:07:43;10.20;99.90
63960;DHT22;50136;51.374;0.096;2023-04-10T21:17:46;10.30;99.90
63960;DHT22;50136;51.374;0.096;2023-04-10T21:27:48;9.50;99.90
63960;DHT22;50136;51.374;0.096;2023-04-10T21:37:51;9.10;99.90
63960;DHT22;50136;51.374;0.096;2023-04-10T21:47:53;9.00;99.90
63960;DHT22;50136;51.374;0.096;2023-04-10T21:57:57;9.00;99.90
63960;DHT22;50136;51.374;0.096;2023-04-10T22:07:59;9.00;99.90
63960;DHT22;50136;51.374;0.096;2023-04-10T22:18:02;9.00;99.90
63960;DHT22;50136;51.374;0.096;2023-04-10T22:28:04;8.90;99.90
63960;DHT22;50136;51.374;0.096;2023-04-10T22:38:08;8.90;99.90
63960;DHT22;50136;51.374;0.096;2023-04-10T22:48:09;8.90;99.90
63960;DHT22;50136;51.374;0.096;2023-04-10T22:58:13;8.90;99.90
63960;DHT22;50136;51.374;0.096;2023-04-10T23:08:15;8.80;99.90
63960;DHT22;50136;51.374;0.096;2023-04-10T23:18:18;8.90;99.90
63960;DHT22;50136;51.374;0.096;2023-04-10T23:28:20;8.80;99.90
63960;DHT22;50136;51.374;0.096;2023-04-10T23:38:24;8.70;99.90
63960;DHT22;50136;51.374;0.096;2023-04-10T23:48:26;8.60;99.90
63960;DHT22;50136;51.374;0.096;2023-04-10T23:58:29;8.50;99.90
